createdAt,value
2023-02-11T00:01:22.589Z,13.72
2023-02-11T00:03:49.927Z,13.73
2023-02-11T00:06:17.794Z,13.52
2023-02-11T00:08:44.956Z,13.93
2023-02-11T00:11:18.932Z,15.14
2023-02-11T00:13:46.468Z,14.72
2023-02-11T00:16:20.142Z,15.50
2023-02-11T00:18:47.890Z,15.63
2023-02-11T00:21:25.313Z,15.09
2023-02-11T00:23:53.329Z,15.76
2023-02-11T00:26:34.745Z,14.78
2023-02-11T00:29:05.240Z,15.02
2023-02-11T00:31:33.291Z,16.44
2023-02-11T00:34:00.418Z,16.11
2023-02-11T00:36:31.349Z,15.30
2023-02-11T00:39:01.930Z,14.57
2023-02-11T00:41:29.947Z,15.89
2023-02-11T00:43:57.438Z,15.35
2023-02-11T00:46:24.892Z,14.20
2023-02-11T00:48:55.049Z,14.17
2023-02-11T00:51:25.037Z,14.41
2023-02-11T00:53:52.142Z,15.10
2023-02-11T00:56:19.570Z,15.76
2023-02-11T00:58:46.736Z,15.46
2023-02-11T01:01:14.202Z,15.96
2023-02-11T01:03:43.926Z,15.53
2023-02-11T01:06:11.812Z,13.59
2023-02-11T01:08:40.189Z,14.01
2023-02-11T01:11:14.097Z,14.54
2023-02-11T01:13:41.327Z,13.80
2023-02-11T01:16:10.850Z,13.14
2023-02-11T01:18:38.330Z,14.09
2023-02-11T01:21:05.805Z,14.94
2023-02-11T01:23:32.909Z,13.35
2023-02-11T01:26:02.450Z,14.42
2023-02-11T01:28:30.982Z,14.83
2023-02-11T01:31:01.944Z,16.06
2023-02-11T01:33:29.480Z,13.38
2023-02-11T01:36:01.032Z,13.78
2023-02-11T01:38:28.149Z,13.23
2023-02-11T01:41:08.915Z,14.25
2023-02-11T01:43:45.178Z,15.03
2023-02-11T01:46:31.126Z,13.60
2023-02-11T01:49:18.783Z,13.14
2023-02-11T01:51:54.797Z,13.97
2023-02-11T01:54:45.237Z,14.03
2023-02-11T01:57:25.396Z,14.02
2023-02-11T02:00:36.782Z,14.68
2023-02-11T02:03:09.879Z,15.21
2023-02-11T02:06:11.083Z,13.41
2023-02-11T02:09:18.236Z,14.24
2023-02-11T02:11:45.422Z,12.93
2023-02-11T02:14:12.488Z,14.07
2023-02-11T02:16:39.738Z,14.91
2023-02-11T02:20:11.349Z,14.95
2023-02-11T02:23:20.917Z,14.48
2023-02-11T02:26:38.577Z,15.17
2023-02-11T02:29:28.250Z,13.17
2023-02-11T02:32:16.783Z,13.57
2023-02-11T02:35:40.010Z,13.98
2023-02-11T02:38:12.877Z,14.11
2023-02-11T02:40:57.977Z,14.07
2023-02-11T02:43:27.857Z,14.27
2023-02-11T02:45:55.024Z,15.26
2023-02-11T02:48:35.763Z,-93.22
2023-02-11T02:51:34.748Z,14.07
2023-02-11T02:54:29.584Z,13.18
2023-02-11T02:57:17.665Z,13.35
2023-02-11T02:59:47.378Z,15.19
2023-02-11T03:02:23.423Z,15.10
2023-02-11T03:05:10.780Z,12.69
2023-02-11T03:07:44.411Z,12.25
2023-02-11T03:10:36.384Z,12.14
2023-02-11T03:13:05.461Z,12.76
2023-02-11T03:15:38.782Z,11.54
2023-02-11T03:18:09.239Z,13.03
2023-02-11T03:20:39.553Z,13.09
2023-02-11T03:23:24.169Z,14.15
2023-02-11T03:26:03.079Z,13.97
2023-02-11T03:28:41.358Z,14.15
2023-02-11T03:31:37.589Z,15.03
2023-02-11T03:34:15.848Z,15.33
2023-02-11T03:37:25.616Z,14.44
2023-02-11T03:40:12.205Z,14.50
2023-02-11T03:43:47.419Z,14.63
2023-02-11T03:46:18.976Z,14.57
2023-02-11T03:48:52.666Z,14.12
2023-02-11T03:51:24.255Z,14.01
2023-02-11T03:53:55.746Z,13.95
2023-02-11T03:56:29.182Z,14.10
2023-02-11T03:58:56.596Z,14.48
2023-02-11T04:01:23.852Z,13.88
2023-02-11T04:03:51.012Z,13.96
2023-02-11T04:06:18.493Z,14.90
2023-02-11T04:08:45.686Z,12.63
2023-02-11T04:11:14.980Z,14.15
2023-02-11T04:13:44.781Z,14.59
2023-02-11T04:16:11.967Z,14.10
2023-02-11T04:18:39.078Z,11.74
2023-02-11T04:21:06.345Z,12.70
2023-02-11T04:23:33.505Z,14.05
2023-02-11T04:26:00.590Z,14.59
2023-02-11T04:28:31.587Z,11.98
2023-02-11T04:30:58.939Z,13.12
2023-02-11T04:33:26.191Z,11.83
2023-02-11T04:35:53.289Z,13.78
2023-02-11T04:38:20.396Z,13.70
2023-02-11T04:40:50.908Z,13.06
2023-02-11T04:43:18.399Z,14.04
2023-02-11T04:45:45.477Z,14.17
2023-02-11T04:48:12.585Z,13.13
2023-02-11T04:50:39.760Z,14.60
2023-02-11T04:53:06.841Z,15.41
2023-02-11T04:55:34.000Z,15.75
2023-02-11T04:58:01.125Z,15.81
2023-02-11T05:00:28.264Z,15.02
2023-02-11T05:02:55.360Z,15.30
2023-02-11T05:05:22.592Z,14.57
2023-02-11T05:07:49.697Z,14.05
2023-02-11T05:10:17.067Z,15.60
2023-02-11T05:12:44.210Z,13.91
2023-02-11T05:15:13.746Z,13.28
2023-02-11T05:17:40.902Z,14.56
2023-02-11T05:20:08.812Z,13.52
2023-02-11T05:22:35.850Z,14.16
2023-02-11T05:25:03.014Z,15.99
2023-02-11T05:27:30.152Z,15.61
2023-02-11T05:29:57.434Z,15.44
2023-02-11T05:32:27.750Z,14.93
2023-02-11T05:34:54.929Z,14.88
2023-02-11T05:37:22.080Z,16.22
2023-02-11T05:39:49.280Z,16.57
2023-02-11T05:42:16.401Z,14.94
2023-02-11T05:44:45.763Z,14.99
2023-02-11T05:47:12.790Z,13.50
2023-02-11T05:49:39.908Z,12.74
2023-02-11T05:52:06.986Z,14.66
2023-02-11T05:54:34.088Z,15.05
2023-02-11T05:57:01.226Z,14.56
2023-02-11T05:59:28.334Z,14.87
2023-02-11T06:01:55.924Z,15.08
2023-02-11T06:04:23.132Z,14.71
2023-02-11T06:06:50.383Z,15.26
2023-02-11T06:09:19.871Z,14.15
2023-02-11T06:11:49.455Z,15.66
2023-02-11T06:14:16.744Z,15.07
2023-02-11T06:16:43.951Z,15.79
2023-02-11T06:19:12.460Z,16.76
2023-02-11T06:21:44.218Z,15.47
2023-02-11T06:24:12.802Z,15.33
2023-02-11T06:26:42.704Z,15.19
2023-02-11T06:29:10.415Z,14.41
2023-02-11T06:31:39.357Z,16.20
2023-02-11T06:34:07.923Z,16.91
2023-02-11T06:36:35.696Z,14.53
2023-02-11T06:39:05.550Z,15.81
2023-02-11T06:41:33.052Z,14.45
2023-02-11T06:44:00.811Z,14.11
2023-02-11T06:46:28.065Z,14.66
2023-02-11T06:48:58.116Z,14.21
2023-02-11T06:51:28.628Z,15.18
2023-02-11T06:53:55.765Z,14.75
2023-02-11T06:56:27.733Z,14.06
2023-02-11T06:58:56.672Z,14.77
2023-02-11T07:01:25.793Z,15.42
2023-02-11T07:03:53.475Z,16.05
2023-02-11T07:06:25.748Z,15.58
2023-02-11T07:08:52.843Z,15.23
2023-02-11T07:11:24.912Z,15.92
2023-02-11T07:13:55.257Z,14.65
2023-02-11T07:16:25.072Z,14.62
2023-02-11T07:18:53.224Z,15.15
2023-02-11T07:21:24.418Z,15.29
2023-02-11T07:23:51.935Z,15.01
2023-02-11T07:26:23.353Z,16.64
2023-02-11T07:28:51.659Z,16.79
2023-02-11T07:31:28.311Z,14.63
2023-02-11T07:34:00.017Z,16.33
2023-02-11T07:36:29.675Z,15.00
2023-02-11T07:38:56.968Z,13.38
2023-02-11T07:41:25.680Z,12.61
2023-02-11T07:43:53.496Z,13.41
2023-02-11T07:46:28.374Z,12.83
2023-02-11T07:48:56.503Z,13.59
2023-02-11T07:51:29.921Z,13.86
2023-02-11T07:54:00.051Z,12.57
2023-02-11T07:56:28.719Z,12.96
2023-02-11T07:58:59.795Z,13.50
2023-02-11T08:01:28.760Z,14.40
2023-02-11T08:03:58.419Z,14.35
2023-02-11T08:06:29.788Z,14.32
2023-02-11T08:08:57.286Z,13.83
2023-02-11T08:11:28.236Z,13.82
2023-02-11T08:13:56.761Z,13.98
2023-02-11T08:16:32.167Z,14.03
2023-02-11T08:19:04.415Z,13.07
2023-02-11T08:21:31.581Z,13.26
2023-02-11T08:23:59.190Z,13.81
2023-02-11T08:26:29.795Z,13.04
2023-02-11T08:28:58.932Z,13.67
2023-02-11T08:31:41.680Z,12.93
2023-02-11T08:34:11.531Z,13.28
2023-02-11T08:36:42.833Z,12.56
2023-02-11T08:39:20.490Z,12.50
2023-02-11T08:41:54.007Z,12.49
2023-02-11T08:44:24.741Z,13.44
2023-02-11T08:46:52.412Z,13.51
2023-02-11T08:49:20.441Z,13.46
2023-02-11T08:51:48.403Z,12.81
2023-02-11T08:54:16.326Z,12.78
2023-02-11T08:56:43.744Z,13.22
2023-02-11T08:59:15.675Z,13.22
2023-02-11T09:01:44.428Z,13.67
2023-02-11T09:04:11.721Z,13.25
2023-02-11T09:06:38.865Z,12.84
2023-02-11T09:09:06.508Z,14.28
2023-02-11T09:11:37.427Z,13.82
2023-02-11T09:14:05.181Z,13.83
2023-02-11T09:16:36.615Z,13.54
2023-02-11T09:19:05.779Z,13.95
2023-02-11T09:21:33.300Z,14.86
2023-02-11T09:24:00.494Z,14.19
2023-02-11T09:26:31.930Z,14.32
2023-02-11T09:29:04.913Z,14.92
2023-02-11T09:31:34.162Z,13.06
2023-02-11T09:34:06.640Z,13.01
2023-02-11T09:36:38.650Z,13.51
2023-02-11T09:39:11.479Z,15.12
2023-02-11T09:42:15.705Z,15.25
2023-02-11T09:44:46.377Z,13.36
2023-02-11T09:47:34.247Z,12.66
2023-02-11T09:50:07.606Z,16.60
2023-02-11T09:52:56.021Z,17.22
2023-02-11T09:55:37.958Z,17.87
2023-02-11T09:58:15.502Z,16.30
2023-02-11T10:01:27.882Z,15.51
2023-02-11T10:04:02.935Z,15.70
2023-02-11T10:06:49.767Z,16.09
2023-02-11T10:09:48.224Z,16.97
2023-02-11T10:12:42.375Z,17.54
2023-02-11T10:15:52.003Z,15.22
2023-02-11T10:18:39.301Z,16.03
2023-02-11T10:21:47.917Z,14.79
2023-02-11T10:24:20.048Z,17.66
2023-02-11T10:26:47.605Z,16.96
2023-02-11T10:29:41.069Z,17.76
2023-02-11T10:32:27.796Z,17.35
2023-02-11T10:35:01.125Z,16.82
2023-02-11T10:37:28.488Z,17.16
2023-02-11T10:39:55.577Z,16.67
2023-02-11T10:42:22.706Z,17.07
2023-02-11T10:45:01.734Z,17.28
2023-02-11T10:47:37.612Z,15.69
2023-02-11T10:50:22.904Z,14.50
2023-02-11T10:52:50.198Z,14.79
2023-02-11T10:55:23.432Z,15.89
2023-02-11T10:57:58.698Z,15.05
2023-02-11T11:00:42.382Z,14.94
2023-02-11T11:03:25.707Z,13.89
2023-02-11T11:06:02.845Z,13.91
2023-02-11T11:08:46.697Z,14.06
2023-02-11T11:11:19.289Z,14.92
2023-02-11T11:14:03.843Z,14.92
2023-02-11T11:16:37.198Z,17.04
2023-02-11T11:19:07.288Z,15.91
2023-02-11T11:21:51.066Z,16.39
2023-02-11T11:24:55.382Z,18.49
2023-02-11T11:27:25.945Z,17.42
2023-02-11T11:29:56.464Z,18.23
2023-02-11T11:32:33.801Z,17.79
2023-02-11T11:35:06.392Z,18.08
2023-02-11T11:37:37.233Z,17.51
2023-02-11T11:40:25.618Z,18.54
2023-02-11T11:43:23.029Z,18.41
2023-02-11T11:45:57.800Z,18.89
2023-02-11T11:48:33.660Z,18.33
2023-02-11T11:51:06.185Z,16.90
2023-02-11T11:54:00.198Z,16.20
2023-02-11T11:56:34.318Z,15.96
2023-02-11T11:59:11.156Z,16.68
2023-02-11T12:02:20.499Z,15.95
2023-02-11T12:04:59.634Z,14.19
2023-02-11T12:07:45.500Z,15.04
2023-02-11T12:10:58.978Z,15.45
2023-02-11T12:13:39.556Z,15.33
2023-02-11T12:17:06.451Z,16.02
2023-02-11T12:19:52.479Z,16.77
2023-02-11T12:23:14.113Z,17.19
2023-02-11T12:26:00.870Z,15.23
2023-02-11T12:28:55.008Z,15.86
2023-02-11T12:31:50.709Z,16.66
2023-02-11T12:34:46.127Z,16.15
2023-02-11T12:37:41.442Z,15.92
2023-02-11T12:40:35.989Z,17.09
2023-02-11T12:43:17.380Z,16.74
2023-02-11T12:46:12.814Z,17.29
2023-02-11T12:49:45.667Z,16.73
2023-02-11T12:52:31.082Z,17.52
2023-02-11T12:55:11.804Z,16.31
2023-02-11T12:57:41.874Z,17.40
2023-02-11T13:00:38.004Z,16.93
2023-02-11T13:03:19.215Z,16.54
2023-02-11T13:05:58.753Z,16.05
2023-02-11T13:08:43.471Z,16.30
2023-02-11T13:11:37.937Z,16.75
2023-02-11T13:14:17.277Z,17.00
2023-02-11T13:16:51.004Z,16.43
2023-02-11T13:19:34.537Z,16.53
2023-02-11T13:22:20.132Z,16.85
2023-02-11T13:24:59.844Z,18.28
2023-02-11T13:27:33.262Z,17.99
2023-02-11T13:30:39.455Z,18.83
2023-02-11T13:33:20.884Z,20.28
2023-02-11T13:35:57.187Z,20.23
2023-02-11T13:38:33.566Z,19.48
2023-02-11T13:41:25.938Z,18.68
2023-02-11T13:44:11.416Z,19.78
2023-02-11T13:47:01.571Z,18.88
2023-02-11T13:49:50.774Z,19.54
2023-02-11T13:52:37.805Z,18.81
2023-02-11T13:55:24.600Z,19.00
2023-02-11T13:58:14.911Z,18.51
2023-02-11T14:00:50.476Z,17.54
2023-02-11T14:03:49.611Z,16.55
2023-02-11T14:07:05.544Z,19.16
2023-02-11T14:09:40.282Z,18.34
2023-02-11T14:12:31.388Z,17.05
2023-02-11T14:15:21.281Z,20.39
2023-02-11T14:17:52.546Z,17.86
2023-02-11T14:20:45.581Z,19.70
2023-02-11T14:23:27.291Z,18.84
2023-02-11T14:26:19.907Z,16.77
2023-02-11T14:29:17.607Z,16.00
2023-02-11T14:31:55.073Z,16.77
2023-02-11T14:34:31.011Z,17.70
2023-02-11T14:37:20.867Z,16.74
2023-02-11T14:39:58.461Z,17.12
2023-02-11T14:42:31.147Z,17.01
2023-02-11T14:45:07.733Z,16.42
2023-02-11T14:47:45.309Z,16.37
2023-02-11T14:50:26.371Z,17.76
2023-02-11T14:52:54.877Z,16.90
2023-02-11T14:55:38.125Z,17.42
2023-02-11T14:58:17.110Z,17.17
2023-02-11T15:01:09.309Z,17.89
2023-02-11T15:03:47.887Z,17.27
2023-02-11T15:06:19.166Z,-140.73
2023-02-11T15:09:03.624Z,-140.73
2023-02-11T15:11:39.651Z,-140.73
2023-02-11T15:14:21.670Z,-140.73
2023-02-11T15:16:50.891Z,-140.73
2023-02-11T15:19:41.271Z,-140.73
2023-02-11T15:22:33.123Z,-140.73
2023-02-11T15:25:16.616Z,-140.73
2023-02-11T15:27:48.226Z,-140.73
2023-02-11T15:30:25.013Z,-140.73
2023-02-11T15:32:59.955Z,-140.73
2023-02-11T15:35:35.062Z,-140.73
2023-02-11T15:38:02.700Z,-140.73
2023-02-11T15:40:33.771Z,-140.73
2023-02-11T15:43:06.005Z,-140.73
2023-02-11T15:45:33.894Z,-140.73
2023-02-11T15:48:26.999Z,-140.73
2023-02-11T15:51:01.473Z,-140.73
2023-02-11T15:53:43.113Z,-140.73
2023-02-11T15:56:25.684Z,-140.73
2023-02-11T15:58:56.154Z,-140.73
2023-02-11T16:01:38.324Z,-140.73
2023-02-11T16:04:06.339Z,-140.73
2023-02-11T16:12:25.109Z,-140.73
2023-02-11T16:14:59.544Z,-140.73
2023-02-11T16:17:29.757Z,-140.73
2023-02-11T16:19:57.465Z,-140.73
2023-02-11T16:22:38.190Z,-140.73
2023-02-11T16:25:06.315Z,-140.73
2023-02-11T16:27:41.555Z,-140.73
2023-02-11T16:30:35.011Z,-140.73
2023-02-11T16:33:05.023Z,-140.73
2023-02-11T16:35:32.851Z,-140.73
2023-02-11T16:38:00.428Z,-140.73
2023-02-11T16:40:30.756Z,-140.73
2023-02-11T16:42:59.377Z,-140.73
2023-02-11T16:45:27.493Z,-140.73
2023-02-11T16:47:55.513Z,-140.73
2023-02-11T16:50:27.889Z,-140.73
2023-02-11T16:52:55.582Z,-140.73
2023-02-11T16:55:26.330Z,-140.73
2023-02-11T16:57:54.670Z,-140.73
2023-02-11T17:00:23.583Z,-140.73
2023-02-11T17:02:54.135Z,-140.73
2023-02-11T17:05:25.485Z,-140.73
2023-02-11T17:07:57.926Z,-140.73
2023-02-11T17:10:27.457Z,-140.73
2023-02-11T17:12:57.411Z,-140.73
2023-02-11T17:15:24.809Z,-140.73
2023-02-11T17:17:52.348Z,-140.73
2023-02-11T17:20:20.842Z,-140.73
2023-02-11T17:22:51.206Z,-140.73
2023-02-11T17:25:18.962Z,-140.73
2023-02-11T17:27:51.213Z,-140.73
2023-02-11T17:30:23.302Z,-140.73
2023-02-11T17:32:54.052Z,-140.73
2023-02-11T17:35:24.068Z,-140.73
2023-02-11T17:37:51.914Z,-140.73
2023-02-11T17:40:19.784Z,-140.73
2023-02-11T17:48:28.190Z,-140.73
2023-02-11T17:50:58.846Z,-140.73
2023-02-11T17:53:26.608Z,-140.73
2023-02-11T17:55:56.777Z,-140.73
2023-02-11T17:58:24.354Z,-140.73
2023-02-11T18:00:52.203Z,-140.73
2023-02-11T18:03:22.179Z,-140.73
2023-02-11T18:05:51.309Z,-140.73
2023-02-11T18:08:19.282Z,-140.73
2023-02-11T18:10:46.600Z,-140.73
2023-02-11T18:13:16.910Z,-140.73
2023-02-11T18:15:56.067Z,-140.73
2023-02-11T18:18:23.623Z,-140.73
2023-02-11T18:21:08.792Z,-140.73
2023-02-11T18:23:45.276Z,-140.73
2023-02-11T18:26:19.242Z,-140.73
2023-02-11T18:28:48.137Z,-140.73
2023-02-11T18:31:22.182Z,-140.73
2023-02-11T18:33:49.847Z,-140.73
2023-02-11T18:36:17.494Z,-140.73
2023-02-11T18:38:45.175Z,-140.73
2023-02-11T18:41:14.846Z,-140.73
2023-02-11T18:43:43.373Z,-140.73
2023-02-11T18:46:14.748Z,-140.73
2023-02-11T18:48:45.300Z,-140.73
2023-02-11T18:51:18.624Z,-140.73
2023-02-11T18:53:46.931Z,-140.73
2023-02-11T18:56:20.929Z,-140.73
2023-02-11T18:58:49.972Z,-140.73
2023-02-11T19:01:29.825Z,-140.73
2023-02-11T19:03:59.983Z,-140.73
2023-02-11T19:06:30.519Z,-140.73
2023-02-11T19:09:02.685Z,-140.73
2023-02-11T19:11:49.160Z,-140.73
2023-02-11T19:14:29.924Z,-140.73
2023-02-11T19:17:01.731Z,-140.73
2023-02-11T19:19:33.212Z,-140.73
2023-02-11T19:22:02.362Z,-140.73
2023-02-11T19:24:30.825Z,-140.73
2023-02-11T19:27:01.474Z,-140.73
2023-02-11T19:29:32.412Z,-140.73
2023-02-11T19:32:00.510Z,-140.73
2023-02-11T19:34:28.291Z,-140.73
2023-02-11T19:36:56.853Z,-140.73
2023-02-11T19:39:25.134Z,-140.73
2023-02-11T19:41:53.644Z,-140.73
2023-02-11T19:44:21.172Z,-140.73
2023-02-11T19:46:50.786Z,-140.73
2023-02-11T19:49:23.868Z,-140.73
2023-02-11T19:51:52.981Z,-140.73
2023-02-11T19:54:21.656Z,-140.73
2023-02-11T19:56:52.965Z,-140.73
2023-02-11T19:59:21.702Z,-140.73
2023-02-11T20:01:49.894Z,-140.73
2023-02-11T20:04:23.073Z,-140.73
2023-02-11T20:06:51.070Z,-140.73
2023-02-11T20:09:21.072Z,-140.73
2023-02-11T20:14:34.255Z,-140.73
2023-02-11T20:17:04.048Z,-140.73
2023-02-11T20:19:31.482Z,-140.73
2023-02-11T20:22:01.400Z,-140.73
2023-02-11T20:24:30.031Z,-140.73
2023-02-11T20:27:04.845Z,-140.73
2023-02-11T20:29:45.996Z,-140.73
2023-02-11T20:32:15.158Z,-140.73
2023-02-11T20:34:42.938Z,-140.73
2023-02-11T20:37:10.875Z,-140.73
2023-02-11T20:39:41.961Z,-140.73
2023-02-11T20:42:11.844Z,-140.73
2023-02-11T20:44:43.195Z,-140.73
2023-02-11T20:47:11.996Z,-140.73
2023-02-11T20:49:39.740Z,-140.73
2023-02-11T20:52:08.383Z,-140.73
2023-02-11T20:54:41.490Z,-140.73
2023-02-11T20:57:16.766Z,-140.73
2023-02-11T20:59:48.074Z,-140.73
2023-02-11T21:02:19.169Z,-140.73
2023-02-11T21:04:49.989Z,-140.73
2023-02-11T21:07:25.675Z,-140.73
2023-02-11T21:10:01.841Z,-140.73
2023-02-11T21:12:32.412Z,-140.73
2023-02-11T21:15:08.041Z,-140.73
2023-02-11T21:17:38.229Z,-140.73
2023-02-11T21:20:09.089Z,-140.73
2023-02-11T21:22:36.825Z,-140.73
2023-02-11T21:25:09.184Z,-140.73
2023-02-11T21:27:52.445Z,-140.73
2023-02-11T21:30:32.291Z,-140.73
2023-02-11T21:33:02.537Z,-140.73
2023-02-11T21:35:41.802Z,-140.73
2023-02-11T21:38:24.284Z,-140.73
2023-02-11T21:40:52.734Z,-140.73
2023-02-11T21:43:21.387Z,-140.73
2023-02-11T21:46:01.125Z,-140.73
2023-02-11T21:48:41.104Z,-140.73
2023-02-11T21:54:26.020Z,-140.73
2023-02-11T21:57:26.575Z,-140.73
2023-02-11T22:00:35.484Z,-140.73
2023-02-11T22:03:49.627Z,-140.73
2023-02-11T22:06:34.617Z,-140.73
2023-02-11T22:09:24.268Z,-140.73
2023-02-11T22:12:00.478Z,-140.73
2023-02-11T22:14:46.900Z,-140.73
2023-02-11T22:20:28.535Z,-140.73
2023-02-11T22:23:05.332Z,-140.73
2023-02-11T22:25:46.005Z,-140.73
2023-02-11T22:28:16.689Z,-140.73
2023-02-11T22:30:44.548Z,-140.73
2023-02-11T22:33:22.018Z,-140.73
2023-02-11T22:35:55.839Z,-140.73
2023-02-11T22:38:34.689Z,-140.73
2023-02-11T22:41:16.353Z,-140.73
2023-02-11T22:43:44.753Z,-140.73
2023-02-11T22:46:16.800Z,-140.73
2023-02-11T22:48:48.182Z,-140.73
2023-02-11T22:51:28.541Z,-140.73
2023-02-11T22:54:05.752Z,-140.73
2023-02-11T22:56:36.483Z,-140.73
2023-02-11T22:59:07.408Z,-140.73
2023-02-11T23:01:35.894Z,-140.73
2023-02-11T23:04:07.679Z,-140.73
2023-02-11T23:06:37.795Z,-140.73
2023-02-11T23:09:08.030Z,-140.73
2023-02-11T23:11:36.630Z,-140.73
2023-02-11T23:14:04.673Z,-140.73
2023-02-11T23:16:34.521Z,-140.73
2023-02-11T23:19:07.442Z,-140.73
2023-02-11T23:21:48.105Z,-140.73
2023-02-11T23:24:18.826Z,-140.73
2023-02-11T23:26:51.425Z,-140.73
2023-02-11T23:29:19.376Z,-140.73
2023-02-11T23:31:47.341Z,-140.73
2023-02-11T23:34:17.398Z,-140.73
2023-02-11T23:36:46.312Z,-140.73
2023-02-11T23:39:16.010Z,-140.73
2023-02-11T23:41:44.012Z,-140.73
2023-02-11T23:44:11.954Z,-140.73
2023-02-11T23:46:39.768Z,-140.73
2023-02-11T23:49:07.833Z,-140.73
2023-02-11T23:51:35.220Z,-140.73
2023-02-11T23:54:03.608Z,-140.73
2023-02-11T23:56:31.119Z,-140.73
2023-02-11T23:58:59.644Z,-140.73
